Terminal Aerodrome Forecast
Issued by NWS

Home | Current Version | Previous Version | Text Only | Print | Product List | Glossary On
Versions: 1 2 3 4 5 6 7 8 9 10 11 12 13 14 15 16 17 18 19 20 21 22 23 24 25 26 27 28 29 30 31 32 33 34
000
FTUS41 KRNK 300522
TAFLWB
TAF
KLWB 300522Z 3006/3106 00000KT P6SM SKC
     FM300700 00000KT 4SM BR BKN150
     FM301000 00000KT 1/4SM FG BKN001
     FM301300 21003KT P6SM SCT020
     FM301700 21005KT P6SM VCTS BKN050CB
     FM310000 VRB03KT P6SM SCT050 BKN100=

USA.gov is the U.S. government's official web portal to all federal, state and local government web resources and services.